Time;durP1;ratioP1;P1;durP2;ratioP2;P2;SDS_P1;SDS_P2;PMS_P1;PMS_P2;Temp;Humidity;BMP_temperature;BMP_pressure;BME280_temperature;BME280_humidity;BME280_pressure;Samples;Min_cycle;Max_cycle;Signal;HPM_P1;HPM_P2
2022/07/02 00:00:18;;;;;;;2.80;1.20;;;16.40;99.90;;;16.75;76.36;101586.81;5252407;28;20146;-79
2022/07/02 00:02:52;;;;;;;1.45;1.30;;;16.40;99.90;;;16.75;75.95;101592.06;5219025;28;20047;-82
2022/07/02 00:05:28;;;;;;;2.35;0.95;;;16.40;99.90;;;16.74;75.77;101592.94;5236526;28;20044;-82
2022/07/02 00:08:02;;;;;;;1.20;1.10;;;16.40;99.90;;;16.73;75.81;101593.81;5219734;28;20045;-83
2022/07/02 00:10:35;;;;;;;1.13;1.02;;;16.40;99.90;;;16.71;76.03;101600.78;5220274;28;20045;-81
2022/07/02 00:13:08;;;;;;;2.80;1.40;;;16.30;99.90;;;16.66;76.25;101613.81;5220345;28;20059;-82
2022/07/02 00:15:41;;;;;;;1.58;1.08;;;16.30;99.90;;;16.61;76.45;101604.91;5218141;28;20049;-81
2022/07/02 00:18:14;;;;;;;1.60;1.20;;;16.30;99.90;;;16.57;76.97;101612.72;5248007;28;20139;-80
2022/07/02 00:20:47;;;;;;;2.28;1.25;;;16.30;99.90;;;16.51;77.32;101608.19;5214655;28;20414;-82
2022/07/02 00:23:19;;;;;;;2.80;1.50;;;16.20;99.90;;;16.46;77.73;101605.44;5232474;28;20048;-81
2022/07/02 00:25:58;;;;;;;1.88;1.35;;;16.20;99.90;;;16.44;78.20;101607.16;5215085;28;20140;-83
2022/07/02 00:28:34;;;;;;;1.92;1.35;;;16.10;99.90;;;16.42;78.43;101607.94;5249991;28;20056;-82
2022/07/02 00:31:06;;;;;;;1.65;1.42;;;16.10;99.90;;;16.41;78.60;101609.69;5216249;28;20038;-81
2022/07/02 00:33:40;;;;;;;2.53;1.35;;;16.10;99.90;;;16.41;78.36;101606.19;5226663;28;20556;-82
2022/07/02 00:36:21;;;;;;;2.55;1.27;;;16.10;99.90;;;16.39;78.48;101607.91;5238356;28;20052;-80
2022/07/02 00:38:53;;;;;;;2.58;1.48;;;16.10;99.90;;;16.35;78.97;101600.78;5250153;28;20074;-82
2022/07/02 00:41:28;;;;;;;1.73;1.13;;;16.10;99.90;;;16.32;79.02;101608.59;5267877;28;20449;-81
2022/07/02 00:44:03;;;;;;;2.75;1.67;;;16.00;99.90;;;16.28;79.51;101605.00;5266397;28;20041;-81
2022/07/02 00:46:37;;;;;;;2.05;1.20;;;16.00;99.90;;;16.27;79.87;101608.50;5244630;28;20494;-82
2022/07/02 00:49:10;;;;;;;1.98;1.13;;;16.00;99.90;;;16.22;80.11;101608.38;5232769;28;20056;-81
2022/07/02 00:51:42;;;;;;;2.88;1.30;;;15.90;99.90;;;16.22;80.28;101610.09;5249127;28;20048;-82
2022/07/02 00:54:14;;;;;;;2.33;1.27;;;15.90;99.90;;;16.20;80.46;101602.19;5249930;28;20123;-82
2022/07/02 00:56:47;;;;;;;2.90;1.42;;;15.90;99.90;;;16.21;80.47;101610.97;5250498;28;20048;-82
2022/07/02 00:59:22;;;;;;;2.95;1.30;;;15.90;99.90;;;16.19;80.45;101615.31;5232101;28;20053;-82
2022/07/02 01:01:54;;;;;;;2.10;1.73;;;15.90;99.90;;;16.18;80.85;101610.91;5251463;28;20098;-81
2022/07/02 01:04:29;;;;;;;3.40;1.60;;;15.90;99.90;;;16.16;80.95;101607.31;5236503;28;20056;-82
2022/07/02 01:07:05;;;;;;;2.63;1.33;;;15.80;99.90;;;16.11;81.00;101607.22;5236192;28;20044;-81
2022/07/02 01:12:29;;;;;;;2.22;1.40;;;15.80;99.90;;;16.02;81.24;101601.72;5236203;28;20112;-80
2022/07/02 01:15:03;;;;;;;2.00;1.30;;;15.80;99.90;;;15.97;81.52;101593.75;5236953;28;20422;-83
2022/07/02 01:17:35;;;;;;;2.00;1.40;;;15.70;99.90;;;15.93;81.65;101591.88;5253156;28;20049;-82
2022/07/02 01:20:09;;;;;;;2.42;1.40;;;15.60;99.90;;;15.90;82.03;101596.16;5239104;28;20045;-83
2022/07/02 01:22:44;;;;;;;2.20;1.52;;;15.60;99.90;;;15.87;82.37;101591.72;5254752;28;20053;-81
2022/07/02 01:25:16;;;;;;;1.65;1.55;;;15.60;99.90;;;15.82;82.42;101595.94;5253533;28;20072;-82
2022/07/02 01:27:48;;;;;;;2.38;1.52;;;15.60;99.90;;;15.78;82.72;101596.75;5236851;28;20044;-81
2022/07/02 01:30:21;;;;;;;1.83;1.13;;;15.50;99.90;;;15.76;82.97;101589.66;5255132;28;20044;-84
2022/07/02 01:32:53;;;;;;;2.03;1.10;;;15.50;99.90;;;15.72;83.11;101597.47;5232244;28;20045;-82
2022/07/02 01:35:25;;;;;;;2.92;2.28;;;15.40;99.90;;;15.70;83.22;101593.88;5234403;28;20041;-82
2022/07/02 01:37:59;;;;;;;2.75;1.60;;;15.40;99.90;;;15.68;83.63;101585.06;5234137;28;20045;-81
2022/07/02 01:40:31;;;;;;;1.80;1.25;;;15.40;99.90;;;15.65;83.71;101589.38;5216962;28;20041;-80
2022/07/02 01:43:03;;;;;;;2.47;1.40;;;15.40;99.90;;;15.63;83.89;101593.69;5249621;28;20079;-83
2022/07/02 01:45:35;;;;;;;2.80;1.48;;;15.40;99.90;;;15.60;84.00;101597.09;5253300;28;20047;-82
2022/07/02 01:48:07;;;;;;;1.30;1.20;;;15.40;99.90;;;15.57;83.90;101601.38;5253785;28;20049;-82
2022/07/02 01:50:39;;;;;;;2.90;1.67;;;15.30;99.90;;;15.54;83.93;101590.78;5235749;28;20484;-82
2022/07/02 01:53:13;;;;;;;3.80;1.35;;;15.30;99.90;;;15.50;84.12;101592.44;5218355;28;20052;-83
2022/07/02 01:55:45;;;;;;;1.65;1.23;;;15.30;99.90;;;15.45;83.84;101589.69;5217514;28;20049;-84
2022/07/02 01:58:17;;;;;;;2.03;1.40;;;15.20;99.90;;;15.41;84.03;101590.44;5236143;28;20064;-80
2022/07/02 02:00:49;;;;;;;2.97;1.35;;;15.20;99.90;;;15.37;84.16;101588.56;5254354;28;20049;-83
2022/07/02 02:03:21;;;;;;;2.25;1.30;;;15.10;99.90;;;15.35;84.17;101600.78;5252933;28;20104;-81
2022/07/02 02:05:54;;;;;;;2.05;1.10;;;15.10;99.90;;;15.32;84.29;101600.72;5236582;28;20135;-82
2022/07/02 02:08:27;;;;;;;1.75;1.30;;;15.10;99.90;;;15.31;84.24;101598.00;5227935;28;20059;-82
2022/07/02 02:10:59;;;;;;;1.73;1.40;;;15.00;99.90;;;15.28;84.17;101603.19;5234609;28;20037;-82
2022/07/02 02:13:31;;;;;;;1.60;1.30;;;15.00;99.90;;;15.24;84.16;101602.22;5233792;28;20055;-79
2022/07/02 02:16:04;;;;;;;2.08;1.48;;;15.00;99.90;;;15.21;84.26;101607.38;5234354;28;20056;-81
2022/07/02 02:18:36;;;;;;;1.25;1.05;;;14.90;99.90;;;15.19;84.59;101609.97;5233509;28;20040;-82
2022/07/02 02:21:08;;;;;;;1.67;1.20;;;14.90;99.90;;;15.16;84.45;101611.59;5233223;28;20045;-80
2022/07/02 02:23:42;;;;;;;2.35;1.35;;;14.90;99.90;;;15.13;84.31;101611.53;5233387;28;20047;-80
2022/07/02 02:26:14;;;;;;;2.63;1.45;;;14.90;99.90;;;15.09;84.06;101609.66;5251038;28;20036;-81
2022/07/02 02:28:46;;;;;;;2.25;1.88;;;14.80;99.90;;;15.05;84.48;101606.03;5234031;28;20071;-81
2022/07/02 02:31:18;;;;;;;1.30;1.20;;;14.80;99.90;;;15.02;84.43;101605.06;5234118;28;20044;-80
2022/07/02 02:33:51;;;;;;;1.58;1.10;;;14.80;99.90;;;15.00;84.71;101601.53;5233861;28;20068;-83
2022/07/02 02:36:23;;;;;;;1.98;1.30;;;14.70;99.90;;;14.97;84.74;101604.03;5251883;28;20033;-82
2022/07/02 02:38:56;;;;;;;2.45;1.10;;;14.70;99.90;;;14.95;84.84;101603.13;5251901;28;20045;-83
2022/07/02 02:41:28;;;;;;;2.95;1.40;;;14.70;99.90;;;14.93;84.77;101597.78;5239711;28;20041;-82
2022/07/02 02:44:01;;;;;;;1.30;1.20;;;14.70;99.90;;;14.91;84.76;101597.75;5251124;28;20043;-81
2022/07/02 02:46:33;;;;;;;4.07;1.63;;;14.70;99.90;;;14.91;84.56;101599.50;5233039;28;20059;-82
2022/07/02 02:49:05;;;;;;;2.05;1.20;;;14.70;99.90;;;14.88;84.61;101597.69;5218749;28;20057;-82
2022/07/02 02:51:37;;;;;;;1.55;1.13;;;14.60;99.90;;;14.85;84.71;101594.06;5249158;28;20502;-82
2022/07/02 02:54:10;;;;;;;1.48;1.38;;;14.60;99.90;;;14.82;84.70;101597.50;5250078;28;20052;-81
2022/07/02 02:56:42;;;;;;;2.35;1.08;;;14.60;99.90;;;14.79;85.00;101601.75;5250336;28;20048;-82
2022/07/02 02:59:14;;;;;;;3.85;1.73;;;14.60;99.90;;;14.77;85.12;101593.84;5233352;28;20052;-82
2022/07/02 03:01:46;;;;;;;1.35;1.20;;;14.50;99.90;;;14.76;85.25;101602.56;5250414;28;20055;-83
2022/07/02 03:04:19;;;;;;;1.83;1.27;;;14.50;99.90;;;14.75;85.18;101606.03;5234184;28;20052;-82
2022/07/02 03:06:51;;;;;;;2.40;1.13;;;14.50;99.90;;;14.75;85.13;101613.91;5250832;28;20064;-81
2022/07/02 03:09:24;;;;;;;1.52;1.25;;;14.50;99.90;;;14.74;85.14;101609.50;5233134;28;20049;-81
2022/07/02 03:11:56;;;;;;;1.85;1.20;;;14.50;99.90;;;14.74;84.81;101619.09;5232838;28;20048;-81
2022/07/02 03:14:28;;;;;;;1.38;1.20;;;14.50;99.90;;;14.70;84.90;101617.22;5221194;28;20048;-81
2022/07/02 03:17:00;;;;;;;1.60;1.23;;;14.50;99.90;;;14.68;85.14;101624.16;5212607;28;20048;-81
2022/07/02 03:19:32;;;;;;;1.52;1.20;;;14.50;99.90;;;14.64;84.95;101612.66;5175726;28;1080132;-82
2022/07/02 03:22:05;;;;;;;1.77;1.20;;;14.40;99.90;;;14.65;85.14;101625.81;5214076;28;20147;-82
2022/07/02 03:24:38;;;;;;;1.90;1.13;;;14.40;99.90;;;14.65;84.92;101619.69;5213175;28;20049;-81
2022/07/02 03:27:10;;;;;;;1.23;1.10;;;14.40;99.90;;;14.62;84.72;101619.63;5213256;28;20045;-81
2022/07/02 03:29:43;;;;;;;1.30;1.20;;;14.40;99.90;;;14.60;84.95;101621.28;5230710;28;20040;-82
2022/07/02 03:32:15;;;;;;;1.98;1.17;;;14.40;99.90;;;14.59;85.09;101630.00;5213222;28;20519;-82
2022/07/02 03:34:47;;;;;;;2.30;1.27;;;14.40;99.90;;;14.59;85.00;101630.00;5224773;28;20526;-80
2022/07/02 03:37:19;;;;;;;1.90;1.23;;;14.30;99.90;;;14.59;85.00;101637.88;5233279;28;20055;-82
2022/07/02 03:39:53;;;;;;;1.83;1.13;;;14.40;99.90;;;14.60;85.00;101637.91;5251301;28;20414;-81
2022/07/02 03:42:25;;;;;;;2.05;1.10;;;14.40;99.90;;;14.60;84.89;101634.41;5233700;28;20044;-81
2022/07/02 03:44:57;;;;;;;1.90;1.10;;;14.40;99.90;;;14.59;84.83;101640.50;5251483;28;20040;-80
2022/07/02 03:47:29;;;;;;;1.38;1.20;;;14.40;99.90;;;14.59;85.07;101640.50;5233235;28;20044;-81
2022/07/02 03:50:02;;;;;;;1.70;1.30;;;14.40;99.90;;;14.57;85.22;101639.56;5220212;28;20049;-82
2022/07/02 03:52:34;;;;;;;1.52;1.30;;;14.30;99.90;;;14.57;85.25;101642.19;5214597;28;20064;-82
2022/07/02 03:55:09;;;;;;;3.53;1.30;;;14.30;99.90;;;14.56;85.34;101638.69;5212783;28;20132;-80
2022/07/02 03:57:41;;;;;;;1.45;1.23;;;14.30;99.90;;;14.54;85.30;101650.84;5212449;28;20037;-80
2022/07/02 04:00:14;;;;;;;1.65;1.10;;;14.30;99.90;;;14.54;85.72;101650.84;5229539;28;20053;-81
2022/07/02 04:02:47;;;;;;;1.45;1.35;;;14.30;99.90;;;14.56;85.68;101645.66;5230490;28;20113;-81
2022/07/02 04:05:19;;;;;;;1.33;1.13;;;14.30;99.90;;;14.58;85.41;101643.97;5212515;28;20057;-81
2022/07/02 04:07:51;;;;;;;1.25;1.02;;;14.40;99.90;;;14.57;85.35;101647.44;5212610;28;20060;-82
2022/07/02 04:10:25;;;;;;;2.90;1.40;;;14.30;99.90;;;14.56;85.84;101636.06;5230549;28;20048;-81
2022/07/02 04:12:57;;;;;;;2.75;1.40;;;14.30;99.90;;;14.58;85.84;101641.34;5211924;28;20506;-81
2022/07/02 04:15:29;;;;;;;3.22;1.25;;;14.40;99.90;;;14.61;85.80;101644.97;5228928;28;20122;-82
2022/07/02 04:18:01;;;;;;;1.33;1.05;;;14.40;99.90;;;14.62;85.84;101638.88;5212738;28;20060;-83
2022/07/02 04:20:33;;;;;;;1.40;1.13;;;14.40;99.90;;;14.68;86.07;101647.78;5230921;28;20063;-82
2022/07/02 04:23:05;;;;;;;1.45;1.23;;;14.40;99.90;;;14.70;86.24;101649.59;5212424;28;20422;-81
2022/07/02 04:25:39;;;;;;;2.13;1.00;;;14.50;99.90;;;14.74;86.02;101645.34;5212481;28;20052;-81
2022/07/02 04:28:12;;;;;;;1.45;1.10;;;14.50;99.90;;;14.78;85.59;101639.34;5228744;28;20049;-81
2022/07/02 04:30:44;;;;;;;1.58;1.20;;;14.50;99.90;;;14.81;85.58;101648.22;5230279;28;20041;-82
2022/07/02 04:33:16;;;;;;;2.63;1.40;;;14.50;99.90;;;14.82;85.93;101641.22;5211612;28;20419;-82
2022/07/02 04:35:48;;;;;;;2.47;1.30;;;14.60;99.90;;;14.84;85.56;101643.03;5230069;28;20048;-82
2022/07/02 04:38:20;;;;;;;1.67;1.52;;;14.60;99.90;;;14.81;85.01;101642.97;5232911;28;20421;-82
2022/07/02 04:40:53;;;;;;;1.50;1.30;;;14.60;99.90;;;14.84;85.11;101648.28;5216022;28;20045;-82
2022/07/02 04:43:26;;;;;;;1.60;1.38;;;14.60;99.90;;;14.89;84.91;101653.69;5234318;28;20485;-81
2022/07/02 04:45:58;;;;;;;1.23;1.13;;;14.70;99.90;;;14.94;84.93;101654.72;5215917;28;20056;-82
2022/07/02 04:48:31;;;;;;;2.35;1.40;;;14.80;99.90;;;15.02;84.92;101655.84;5215683;28;20052;-81
2022/07/02 04:51:03;;;;;;;1.58;1.30;;;14.80;99.90;;;15.15;84.99;101649.22;5216094;28;20049;-81
2022/07/02 04:53:35;;;;;;;1.40;1.30;;;14.90;99.90;;;15.37;85.39;101651.63;5216094;28;20045;-82
2022/07/02 04:56:09;;;;;;;1.60;1.50;;;15.10;99.90;;;15.70;84.91;101640.31;5215070;28;20056;-81
2022/07/02 04:58:41;;;;;;;3.33;1.33;;;15.40;99.90;;;16.04;83.79;101650.00;5233898;28;20044;-81
2022/07/02 05:01:13;;;;;;;3.70;1.67;;;15.70;99.90;;;16.39;81.75;101648.25;5232549;28;20513;-81
2022/07/02 05:03:45;;;;;;;3.20;1.50;;;16.00;99.90;;;16.92;79.06;101632.84;5232586;28;20049;-83
2022/07/02 05:06:17;;;;;;;3.00;1.33;;;16.40;99.90;;;17.42;76.32;101640.06;5215314;28;20055;-80
2022/07/02 05:08:49;;;;;;;2.55;1.42;;;16.80;99.90;;;17.86;73.79;101640.91;5214993;28;20059;-82
2022/07/02 05:11:23;;;;;;;2.35;1.30;;;17.30;99.90;;;18.30;71.01;101635.53;5215672;28;20052;-80
2022/07/02 05:13:55;;;;;;;4.10;1.70;;;17.70;99.90;;;18.77;69.21;101638.06;5214521;28;20087;-83
2022/07/02 05:16:27;;;;;;;2.55;1.50;;;18.10;99.90;;;19.11;66.72;101644.72;5215063;28;20049;-82
2022/07/02 05:22:04;;;;;;;1.67;1.40;;;18.80;99.90;;;19.51;64.70;101643.47;5157003;28;20531;-83
2022/07/02 05:24:36;;;;;;;2.03;1.42;;;19.00;99.30;;;19.67;63.71;101636.59;5174122;28;20421;-82
2022/07/02 05:27:10;;;;;;;3.03;1.63;;;19.20;98.70;;;19.90;62.76;101650.97;5175018;28;20042;-83
2022/07/02 05:29:42;;;;;;;2.17;1.40;;;19.40;98.20;;;20.06;61.57;101654.63;5169096;28;20058;-83
2022/07/02 05:32:14;;;;;;;2.75;1.33;;;19.50;97.50;;;20.30;61.37;101654.88;5154465;28;20107;-83
2022/07/02 05:34:46;;;;;;;2.88;1.30;;;19.70;97.30;;;20.45;59.70;101653.25;5152597;28;20054;-82
2022/07/02 05:37:18;;;;;;;1.83;1.30;;;19.90;96.40;;;20.65;59.45;101656.03;5154190;28;20509;-84
2022/07/02 05:39:50;;;;;;;2.95;1.30;;;20.00;96.10;;;20.80;58.59;101649.09;5152507;28;20097;-84
2022/07/02 05:42:23;;;;;;;1.70;1.20;;;20.20;95.50;;;20.99;58.01;101654.47;5153617;28;20058;-83
2022/07/02 05:44:56;;;;;;;1.52;1.30;;;20.30;95.10;;;21.22;57.21;101652.84;5136450;28;20059;-83
2022/07/02 05:47:28;;;;;;;1.42;1.15;;;20.60;94.60;;;21.44;56.68;101664.44;5153600;28;20047;-82
2022/07/02 05:50:00;;;;;;;2.30;1.30;;;20.70;94.00;;;21.76;55.64;101661.03;5153772;28;20415;-83
2022/07/02 05:52:32;;;;;;;2.47;1.23;;;21.00;93.40;;;21.85;54.81;101672.56;5152746;28;20047;-82
2022/07/02 05:55:05;;;;;;;2.28;1.20;;;21.10;92.60;;;22.07;54.42;101672.59;5135587;28;20052;-83
2022/07/02 05:57:38;;;;;;;2.95;1.27;;;21.30;92.20;;;22.36;53.85;101673.50;5135754;28;20062;-83
2022/07/02 06:00:12;;;;;;;1.70;0.93;;;21.60;91.80;;;22.50;52.99;101672.66;5150340;28;20095;-81
2022/07/02 06:02:44;;;;;;;3.78;1.30;;;21.70;90.90;;;22.62;52.42;101669.97;5150184;28;20474;-82
2022/07/02 06:08:06;;;;;;;1.35;1.10;;;22.00;90.00;;;22.76;52.71;101676.19;5149101;28;20051;-81
2022/07/02 06:10:38;;;;;;;2.05;1.13;;;22.00;90.10;;;22.80;51.87;101680.56;5148758;28;20057;-81
2022/07/02 06:13:14;;;;;;;1.95;1.00;;;22.10;88.60;;;22.79;51.63;101680.59;5150111;28;20039;-82
2022/07/02 06:15:46;;;;;;;1.42;1.20;;;22.10;87.90;;;22.99;51.60;101684.13;5132008;28;20051;-81
2022/07/02 06:18:18;;;;;;;2.97;1.10;;;22.30;87.70;;;23.05;51.37;101696.53;5149234;28;20043;-83
2022/07/02 06:20:51;;;;;;;2.25;1.20;;;22.30;86.90;;;23.16;50.97;101681.44;5149258;28;20101;-82
2022/07/02 06:23:23;;;;;;;1.80;0.95;;;22.40;86.30;;;23.37;50.54;101685.78;5149658;28;20073;-82
2022/07/02 06:25:55;;;;;;;1.08;0.98;;;22.60;85.90;;;23.56;50.33;101687.47;5149907;28;20058;-81
2022/07/02 06:28:28;;;;;;;4.43;1.25;;;22.80;85.10;;;23.68;49.58;101689.22;5143590;28;20730;-80
2022/07/02 06:31:00;;;;;;;1.45;1.05;;;22.90;83.80;;;23.84;49.72;101688.25;5141516;28;20051;-82
2022/07/02 06:33:32;;;;;;;1.88;1.20;;;23.00;83.60;;;24.09;48.21;101680.97;5149073;28;20054;-80
2022/07/02 06:36:07;;;;;;;1.15;1.02;;;23.30;82.10;;;24.26;47.09;101692.41;5148935;28;20055;-81
2022/07/02 06:38:39;;;;;;;1.30;0.95;;;23.40;79.70;;;24.41;47.72;101696.75;5150651;28;20074;-82
2022/07/02 06:42:18;;;;;;;3.30;1.35;;;23.50;80.60;;;24.54;47.46;101682.44;5150352;28;20054;-82
2022/07/02 06:44:10;;;;;;;1.52;1.00;;;23.70;80.10;;;24.63;47.50;101682.34;5149461;28;20129;-82
2022/07/02 06:46:42;;;;;;;2.28;1.08;;;23.80;79.40;;;24.68;47.50;101678.75;5149125;28;20038;-81
2022/07/02 06:49:14;;;;;;;2.33;1.05;;;23.90;78.90;;;24.69;47.02;101681.41;5149672;28;20038;-81
2022/07/02 06:51:46;;;;;;;1.08;0.82;;;23.90;78.00;;;24.64;47.14;101688.56;5147657;28;20043;-81
2022/07/02 06:54:18;;;;;;;1.90;1.08;;;23.90;77.50;;;24.72;46.56;101675.19;5149277;28;20061;-83
2022/07/02 06:56:50;;;;;;;2.63;1.25;;;24.00;77.20;;;24.73;47.23;101677.81;5147825;28;20057;-79
2022/07/02 06:59:23;;;;;;;2.50;1.02;;;24.10;77.40;;;24.77;47.39;101674.19;5147103;28;20501;-79
2022/07/02 07:01:56;;;;;;;1.13;0.90;;;24.10;77.80;;;24.71;47.48;101670.72;5146596;28;20053;-79
2022/07/02 07:04:28;;;;;;;1.92;0.95;;;24.00;77.40;;;24.63;47.81;101670.78;5146469;28;20053;-79
2022/07/02 07:07:03;;;;;;;1.67;0.70;;;23.90;77.60;;;24.54;47.84;101668.22;5145874;28;20053;-80
2022/07/02 07:09:36;;;;;;;0.75;0.60;;;23.80;77.80;;;24.49;47.88;101668.25;5144994;28;20132;-78
2022/07/02 07:12:09;;;;;;;2.30;0.90;;;23.70;77.60;;;24.44;47.79;101663.88;5132045;28;20050;-86
2022/07/02 07:14:42;;;;;;;0.80;0.80;;;23.70;77.50;;;24.39;47.59;101665.66;5150381;28;20053;-85
2022/07/02 07:17:16;;;;;;;1.05;0.68;;;23.60;77.30;;;24.38;47.40;101658.59;5133335;28;20046;-85
2022/07/02 07:19:48;;;;;;;0.88;0.75;;;23.60;77.50;;;24.33;46.67;101655.94;5149910;28;20050;-84
2022/07/02 07:22:20;;;;;;;0.70;0.70;;;23.60;76.20;;;24.33;46.97;101655.94;5148713;28;20582;-86
2022/07/02 07:24:52;;;;;;;1.40;0.70;;;23.50;76.30;;;24.32;46.53;101656.81;5134535;28;20117;-85
2022/07/02 07:27:24;;;;;;;2.13;0.60;;;23.50;75.70;;;24.36;46.84;101655.94;5150584;28;20050;-85
2022/07/02 07:29:58;;;;;;;2.10;0.90;;;23.50;75.80;;;24.36;45.72;101654.16;5150475;28;20421;-86
2022/07/02 07:32:30;;;;;;;0.60;0.60;;;23.60;74.50;;;24.33;45.58;101656.88;5150939;28;20118;-85
2022/07/02 07:35:02;;;;;;;1.02;0.70;;;23.60;73.90;;;24.44;45.52;101647.88;5150809;28;20114;-85
2022/07/02 07:37:36;;;;;;;0.80;0.68;;;23.60;73.70;;;24.56;45.45;101655.75;5152909;28;20046;-84
2022/07/02 07:40:11;;;;;;;;;;;23.70;73.90;;;24.54;45.36;101661.13;5156458;28;20126;-88
2022/07/02 07:42:43;;;;;;;1.83;0.90;;;23.70;73.50;;;24.68;45.44;101657.44;5150571;28;20425;-87
2022/07/02 07:45:17;;;;;;;1.92;0.80;;;23.80;73.30;;;24.67;44.83;101656.56;5130545;29;20053;-88
2022/07/02 07:47:49;;;;;;;2.00;0.95;;;23.80;72.30;;;24.82;44.82;101651.03;5121107;29;20061;-84
2022/07/02 07:50:21;;;;;;;1.25;0.80;;;23.90;72.80;;;24.96;44.15;101652.69;5139874;28;20047;-87
2022/07/02 07:52:53;;;;;;;0.88;0.63;;;24.10;71.90;;;24.91;44.33;101644.75;5112472;29;20077;-84
2022/07/02 07:55:26;;;;;;;0.65;0.65;;;24.10;71.50;;;25.10;43.76;101650.78;5144280;28;20052;-89
2022/07/02 07:57:59;;;;;;;1.70;0.77;;;24.10;71.30;;;25.29;43.60;101646.09;5152077;28;20513;-90
2022/07/02 08:00:33;;;;;;;1.13;0.63;;;24.30;71.10;;;25.61;43.47;101643.88;5150913;28;20102;-86
2022/07/02 08:03:05;;;;;;;1.92;0.90;;;24.50;71.20;;;25.94;42.92;101653.22;5131617;28;20136;-88
2022/07/02 08:05:38;;;;;;;1.48;0.52;;;24.70;70.70;;;26.32;41.85;101649.06;5148001;28;20054;-86
2022/07/02 08:08:10;;;;;;;3.63;0.70;;;24.90;69.80;;;26.70;41.26;101653.75;5143348;28;20081;-88
2022/07/02 08:10:43;;;;;;;0.68;0.60;;;25.20;69.30;;;27.10;40.64;101645.00;5119509;28;20102;-87
2022/07/02 08:13:15;;;;;;;1.25;0.70;;;25.40;68.50;;;27.61;39.81;101651.94;5138804;28;20063;-87
2022/07/02 08:15:49;;;;;;;1.83;0.47;;;25.70;67.70;;;28.20;38.67;101642.53;5122630;28;20480;-86
2022/07/02 08:18:21;;;;;;;1.20;0.40;;;26.20;67.10;;;28.83;36.78;101649.84;5144799;28;20057;-87
2022/07/02 08:20:53;;;;;;;1.40;0.40;;;26.60;64.40;;;29.32;35.21;101640.38;5149255;28;20054;-87
2022/07/02 08:23:26;;;;;;;0.68;0.47;;;26.80;62.70;;;29.97;34.36;101650.94;5149965;28;20472;-87
2022/07/02 08:25:58;;;;;;;0.57;0.30;;;27.20;62.20;;;30.70;32.81;101660.19;5150340;28;20101;-87
2022/07/02 08:28:31;;;;;;;0.43;0.20;;;27.60;60.30;;;31.37;31.26;101652.34;5150297;28;20134;-87
2022/07/02 08:31:04;;;;;;;0.55;0.30;;;27.90;58.80;;;32.20;30.04;101643.63;5132460;28;20061;-87
2022/07/02 08:33:36;;;;;;;0.43;0.40;;;28.30;57.90;;;33.01;29.14;101645.56;5149083;28;20046;-87
2022/07/02 08:36:09;;;;;;;2.30;0.38;;;28.70;56.90;;;33.95;27.93;101656.41;5149587;28;20054;-87
2022/07/02 08:38:42;;;;;;;0.68;0.20;;;29.10;55.80;;;35.06;26.08;101656.06;5150586;28;20250;-87
2022/07/02 08:41:14;;;;;;;1.25;0.50;;;29.80;53.70;;;36.03;24.30;101654.28;5148916;28;20066;-87
2022/07/02 08:43:49;;;;;;;0.30;0.20;;;30.60;51.60;;;36.43;23.12;101649.22;5148387;28;20043;-87
2022/07/02 08:46:25;;;;;;;0.73;0.30;;;31.10;49.50;;;37.42;22.69;101653.03;5132041;28;20046;-87
2022/07/02 08:49:00;;;;;;;0.35;0.20;;;32.10;49.20;;;38.28;21.19;101659.16;5133543;28;20058;-87
2022/07/02 08:51:32;;;;;;;1.52;0.32;;;32.90;46.80;;;39.06;20.49;101651.84;5132493;28;20057;-87
2022/07/02 08:54:04;;;;;;;1.02;0.32;;;33.80;45.50;;;39.75;19.23;101648.69;5131987;28;20047;-87
2022/07/02 08:56:37;;;;;;;0.30;0.20;;;34.50;43.70;;;39.46;18.43;101632.59;5149375;28;20054;-88
2022/07/02 08:59:09;;;;;;;0.82;0.32;;;34.50;42.10;;;39.69;18.62;101646.41;5148884;28;20050;-87
2022/07/02 09:01:42;;;;;;;1.05;0.43;;;34.90;42.20;;;40.10;18.38;101638.75;5149872;28;20494;-88
2022/07/02 09:04:16;;;;;;;1.77;0.35;;;35.20;41.90;;;40.45;18.49;101640.59;5148294;28;20505;-87
2022/07/02 09:06:48;;;;;;;0.55;0.30;;;35.50;41.40;;;40.64;18.46;101640.91;5147777;28;20055;-86
2022/07/02 09:09:20;;;;;;;0.85;0.20;;;35.70;41.60;;;40.73;18.04;101635.69;5148341;28;20051;-88
2022/07/02 09:11:53;;;;;;;0.65;0.30;;;35.80;40.90;;;40.80;18.07;101626.00;5147932;28;20524;-86
2022/07/02 09:14:25;;;;;;;0.93;0.30;;;35.90;40.80;;;40.54;17.49;101628.94;5132081;28;20055;-87
2022/07/02 09:17:00;;;;;;;0.95;0.20;;;35.90;40.10;;;39.95;17.84;101623.47;5149041;28;20445;-86
2022/07/02 09:19:32;;;;;;;0.20;0.20;;;35.70;40.10;;;39.91;18.38;101611.06;5142177;28;20054;-87
2022/07/02 09:22:06;;;;;;;1.08;0.30;;;35.50;40.60;;;39.87;18.63;101617.75;5140409;28;20433;-87
2022/07/02 09:24:42;;;;;;;1.08;0.40;;;35.40;40.90;;;39.66;19.35;101611.19;5147631;28;20066;-88
2022/07/02 09:27:16;;;;;;;1.10;0.35;;;35.30;41.50;;;39.43;19.09;101596.50;5132267;28;20054;-86
2022/07/02 09:29:52;;;;;;;0.68;0.28;;;35.20;41.30;;;38.87;20.08;101596.91;5150266;28;20121;-87
2022/07/02 09:32:26;;;;;;;0.52;0.38;;;35.00;42.00;;;37.97;20.28;101601.31;5148860;28;20089;-86
2022/07/02 09:34:58;;;;;;;0.85;0.30;;;34.60;42.00;;;36.88;21.53;101598.50;5149638;28;20061;-88
2022/07/02 09:37:30;;;;;;;0.85;0.40;;;34.10;42.40;;;35.66;22.36;101595.81;5150993;28;20504;-87
2022/07/02 09:40:04;;;;;;;1.15;0.40;;;33.40;42.80;;;34.82;24.02;101597.78;5151640;28;20121;-87
2022/07/02 09:42:36;;;;;;;0.50;0.30;;;32.80;44.10;;;33.78;24.78;101581.53;5151562;28;20500;-87
2022/07/02 09:45:11;;;;;;;1.17;0.25;;;32.10;44.50;;;32.87;25.80;101586.78;5149346;28;20054;-88
2022/07/02 09:47:49;;;;;;;1.20;0.40;;;31.50;45.10;;;32.02;26.34;101589.56;5148972;28;20053;-89
2022/07/02 09:50:24;;;;;;;0.57;0.40;;;30.90;45.20;;;31.16;27.39;101577.72;5149950;28;20053;-88
2022/07/02 09:52:59;;;;;;;1.10;0.30;;;30.20;45.90;;;30.67;28.10;101584.91;5150370;28;20509;-89
2022/07/02 09:55:33;;;;;;;0.50;0.40;;;29.80;46.90;;;30.48;29.04;101584.72;5149764;28;20058;-87
2022/07/02 09:58:06;;;;;;;1.20;0.35;;;29.50;47.80;;;30.35;29.53;101575.31;5150543;28;20077;-86
2022/07/02 10:00:45;;;;;;;1.27;0.30;;;29.30;48.00;;;30.39;29.82;101569.78;5147361;28;20062;-85
2022/07/02 10:03:19;;;;;;;0.57;0.30;;;29.30;49.00;;;30.33;29.98;101570.00;5139888;28;20054;-85
2022/07/02 10:05:53;;;;;;;1.38;0.40;;;29.20;49.00;;;29.95;30.72;101574.84;5120142;29;20059;-85
2022/07/02 10:08:25;;;;;;;1.27;0.40;;;28.90;49.30;;;29.82;30.85;101568.13;5146266;28;20074;-86
2022/07/02 10:10:57;;;;;;;1.13;0.52;;;28.80;49.50;;;29.88;30.39;101557.16;5133832;28;20058;-86
2022/07/02 10:13:33;;;;;;;1.27;0.50;;;28.70;49.30;;;29.87;30.14;101544.66;5149813;28;20046;-86
2022/07/02 10:16:11;;;;;;;1.55;0.40;;;28.70;49.50;;;29.69;30.33;101551.53;5133258;28;20137;-86
2022/07/02 10:18:45;;;;;;;1.27;0.50;;;28.60;49.00;;;29.35;31.15;101557.06;5150710;28;20093;-86
2022/07/02 10:21:17;;;;;;;1.20;0.50;;;28.40;49.60;;;29.23;30.96;101551.19;5148958;28;20051;-85
2022/07/02 10:23:49;;;;;;;0.82;0.60;;;28.30;50.40;;;29.28;31.20;101543.84;5149251;28;20536;-88
2022/07/02 10:26:23;;;;;;;0.40;0.40;;;28.30;50.10;;;29.34;30.26;101544.56;5150778;28;20042;-87
2022/07/02 10:28:56;;;;;;;;;;;28.30;49.10;;;29.20;30.51;101536.03;5150985;28;20064;-86
2022/07/02 10:31:32;;;;;;;1.20;0.40;;;28.30;49.10;;;29.31;30.86;101531.22;5148801;28;19922;-87
2022/07/02 10:34:26;;;;;;;0.98;0.40;;;28.30;49.60;;;29.39;31.77;101537.22;5150199;28;20057;-86
2022/07/02 10:36:59;;;;;;;1.10;0.50;;;28.40;50.60;;;29.59;31.96;101523.19;5133317;28;20054;-86
2022/07/02 10:39:39;;;;;;;1.10;0.50;;;28.50;50.90;;;29.57;31.56;101518.81;5149260;28;20145;-86
2022/07/02 10:42:11;;;;;;;1.20;0.60;;;28.50;50.50;;;29.38;31.51;101524.72;5150314;28;20038;-86
2022/07/02 10:44:45;;;;;;;1.25;0.40;;;28.50;50.30;;;29.19;32.05;101518.19;5132491;28;20057;-85